createdAt,value
2022-12-01T11:01:35.981Z,99449.47
2022-12-01T11:04:06.813Z,99445.34
2022-12-01T11:06:35.780Z,99446.66
2022-12-01T11:09:06.905Z,99444.72
2022-12-01T11:11:38.014Z,99442.56
2022-12-01T11:20:30.095Z,99443.97
2022-12-01T11:23:09.741Z,99444.00
2022-12-01T11:25:37.444Z,99438.56
2022-12-01T11:28:05.511Z,99437.47
2022-12-01T11:30:33.929Z,99441.41
2022-12-01T11:33:04.519Z,99442.06
2022-12-01T11:38:30.951Z,99434.81
2022-12-01T11:40:59.254Z,99433.31
2022-12-01T11:43:34.140Z,99439.91
2022-12-01T11:46:05.613Z,99437.88
2022-12-01T11:48:35.664Z,99441.75
2022-12-01T11:51:27.542Z,99443.22
2022-12-01T11:54:16.853Z,99439.94
2022-12-01T11:56:45.776Z,99448.13
2022-12-01T11:59:17.639Z,99434.88
2022-12-01T12:01:50.913Z,99434.31
2022-12-01T12:04:37.196Z,99438.16
2022-12-01T12:07:43.241Z,99436.69
2022-12-01T12:10:19.384Z,99432.09
2022-12-01T12:13:04.897Z,99437.13
2022-12-01T12:18:58.502Z,99441.34
2022-12-01T12:21:41.066Z,99441.00
2022-12-01T12:24:19.417Z,99453.66
2022-12-01T12:27:17.838Z,99444.78
2022-12-01T12:29:50.990Z,99448.72
2022-12-01T12:32:21.680Z,99446.88
2022-12-01T12:34:57.865Z,99446.19
2022-12-01T12:37:31.439Z,99449.25
2022-12-01T12:40:19.729Z,99443.16
2022-12-01T12:42:59.551Z,99441.63
2022-12-01T12:45:46.766Z,99444.31
2022-12-01T12:48:29.659Z,99443.16
2022-12-01T12:51:02.494Z,99444.78
2022-12-01T12:53:41.457Z,99445.53
2022-12-01T12:56:14.249Z,99445.16
2022-12-01T12:58:55.827Z,99452.91
2022-12-01T13:01:28.899Z,99455.56
2022-12-01T13:04:02.467Z,99453.97
2022-12-01T13:06:52.842Z,99456.41
2022-12-01T13:09:41.280Z,99462.84
2022-12-01T13:12:29.226Z,99446.28
2022-12-01T13:15:06.320Z,99451.53
2022-12-01T13:17:35.890Z,99455.75
2022-12-01T13:20:08.021Z,99451.63
2022-12-01T13:22:37.036Z,99446.03
2022-12-01T13:25:05.377Z,99453.25
2022-12-01T13:27:36.729Z,99445.78
2022-12-01T13:30:04.916Z,99448.78
2022-12-01T13:32:35.900Z,99454.16
2022-12-01T13:36:08.585Z,99449.66
2022-12-01T13:38:38.153Z,99456.22
2022-12-01T13:41:26.377Z,99459.66
2022-12-01T13:44:31.446Z,99458.97
2022-12-01T13:47:04.880Z,99456.13
2022-12-01T13:49:39.956Z,99450.78
2022-12-01T13:52:22.725Z,99456.63
2022-12-01T13:55:09.622Z,99451.41
2022-12-01T13:57:50.807Z,99448.66
2022-12-01T14:00:30.539Z,99448.50
2022-12-01T14:03:13.232Z,99447.94
2022-12-01T14:05:40.733Z,99450.94
2022-12-01T14:08:23.564Z,99453.84
2022-12-01T14:10:58.773Z,99446.72
2022-12-01T14:13:28.689Z,99450.69
2022-12-01T14:16:04.233Z,99441.63
2022-12-01T14:18:44.390Z,99448.28
2022-12-01T14:21:12.718Z,99454.00
2022-12-01T14:24:02.537Z,99451.78
2022-12-01T14:26:31.545Z,99451.19
2022-12-01T14:29:01.902Z,99458.94
2022-12-01T14:31:35.326Z,99458.00
2022-12-01T14:34:08.042Z,99454.31
2022-12-01T14:36:45.275Z,99455.94
2022-12-01T14:39:37.242Z,99461.44
2022-12-01T14:42:37.061Z,99454.22
2022-12-01T14:45:08.349Z,99456.03
2022-12-01T14:47:46.792Z,99457.22
2022-12-01T14:50:25.131Z,99452.69
2022-12-01T14:53:07.394Z,99456.91
2022-12-01T14:55:46.504Z,99453.50
2022-12-01T14:58:32.493Z,99463.09
2022-12-01T15:01:14.012Z,99459.03
2022-12-01T15:03:45.468Z,99463.09
2022-12-01T15:06:21.806Z,99450.00
2022-12-01T15:09:32.146Z,99461.34
2022-12-01T15:12:01.173Z,99458.41
2022-12-01T15:14:28.194Z,99449.56
2022-12-01T15:16:56.145Z,99449.84
2022-12-01T15:19:44.375Z,99453.78
2022-12-01T15:22:17.008Z,99451.78
2022-12-01T15:24:47.868Z,99454.38
2022-12-01T15:27:43.084Z,99456.03
2022-12-01T15:30:14.844Z,99456.22
2022-12-01T15:32:45.991Z,99465.06
2022-12-01T15:35:22.788Z,99460.44
2022-12-01T15:37:51.703Z,99446.69
2022-12-01T15:43:21.829Z,99453.59
2022-12-01T15:45:57.743Z,99456.38
2022-12-01T15:48:36.821Z,99445.72
2022-12-01T15:51:18.997Z,99446.53
2022-12-01T15:53:54.357Z,99456.97
2022-12-01T15:56:28.651Z,99446.84
2022-12-01T15:59:02.908Z,99451.09
2022-12-01T16:01:32.704Z,99452.63
2022-12-01T16:04:06.752Z,99450.78
2022-12-01T16:06:37.435Z,99457.03
2022-12-01T16:09:18.699Z,99456.69
2022-12-01T16:12:07.805Z,99455.69
2022-12-01T16:14:36.693Z,99455.91
2022-12-01T16:17:05.810Z,99459.72
2022-12-01T16:19:34.001Z,99460.16
2022-12-01T16:22:17.507Z,99453.44
2022-12-01T16:24:56.064Z,99464.50
2022-12-01T16:27:27.611Z,99458.06
2022-12-01T16:30:01.943Z,99452.56
2022-12-01T16:32:46.216Z,99450.16
2022-12-01T16:35:27.962Z,99447.34
2022-12-01T16:37:55.893Z,99445.63
2022-12-01T16:40:23.450Z,99450.44
2022-12-01T16:42:50.910Z,99447.34
2022-12-01T16:45:19.875Z,99445.25
2022-12-01T16:47:48.458Z,99445.88
2022-12-01T16:50:21.206Z,99445.91
2022-12-01T16:52:48.438Z,99445.09
2022-12-01T16:55:42.763Z,99448.50
2022-12-01T16:58:10.094Z,99450.88
2022-12-01T17:00:37.848Z,99446.50
2022-12-01T17:03:05.701Z,99452.19
2022-12-01T17:05:34.394Z,99443.69
2022-12-01T17:08:01.777Z,99443.31
2022-12-01T17:10:29.534Z,99444.72
2022-12-01T17:12:57.518Z,99445.16
2022-12-01T17:15:25.270Z,99452.91
2022-12-01T17:17:52.382Z,99454.44
2022-12-01T17:20:19.864Z,99452.94
2022-12-01T17:22:46.890Z,99458.06
2022-12-01T17:25:14.524Z,99451.34
2022-12-01T17:27:43.945Z,99458.75
2022-12-01T17:30:13.669Z,99446.41
2022-12-01T17:32:40.829Z,99452.47
2022-12-01T17:35:09.144Z,99458.06
2022-12-01T17:37:39.249Z,99457.09
2022-12-01T17:40:08.920Z,99447.94
2022-12-01T17:42:36.335Z,99446.56
2022-12-01T17:45:03.970Z,99453.75
2022-12-01T17:47:31.133Z,99452.78
2022-12-01T17:49:58.647Z,99449.28
2022-12-01T17:52:28.590Z,99452.19
2022-12-01T17:54:56.863Z,99442.88
2022-12-01T17:57:24.294Z,99449.25
2022-12-01T17:59:51.702Z,99446.59
2022-12-01T18:02:18.860Z,99449.84
2022-12-01T18:04:46.776Z,99453.16
2022-12-01T18:07:14.246Z,99449.84
2022-12-01T18:09:41.908Z,99457.38
2022-12-01T18:12:09.170Z,99446.34
2022-12-01T18:14:38.425Z,99453.28
2022-12-01T18:17:06.344Z,99453.84
2022-12-01T18:19:33.869Z,99455.84
2022-12-01T18:22:00.963Z,99451.03
2022-12-01T18:24:28.474Z,99448.38
2022-12-01T18:26:56.882Z,99447.31
2022-12-01T18:29:26.437Z,99449.88
2022-12-01T18:31:58.932Z,99444.47
2022-12-01T18:34:29.657Z,99446.38
2022-12-01T18:36:57.516Z,99442.13
2022-12-01T18:39:25.141Z,99447.13
2022-12-01T18:41:52.983Z,99448.06
2022-12-01T18:44:20.563Z,99437.41
2022-12-01T18:46:47.824Z,99443.19
2022-12-01T18:49:16.692Z,99442.59
2022-12-01T18:51:43.773Z,99442.25
2022-12-01T18:54:15.586Z,99435.41
2022-12-01T18:56:43.434Z,99435.22
2022-12-01T18:59:12.590Z,99440.38
2022-12-01T19:01:43.532Z,99443.19
2022-12-01T19:04:11.739Z,99432.63
2022-12-01T19:06:40.604Z,99440.47
2022-12-01T19:09:10.425Z,99441.22
2022-12-01T19:11:40.634Z,99434.50
2022-12-01T19:14:13.485Z,99437.19
2022-12-01T19:16:40.778Z,99434.81
2022-12-01T19:19:09.876Z,99433.44
2022-12-01T19:21:37.694Z,99431.88
2022-12-01T19:24:05.608Z,99431.94
2022-12-01T19:26:32.703Z,99432.22
2022-12-01T19:29:00.202Z,99435.41
2022-12-01T19:31:27.487Z,99428.97
2022-12-01T19:33:55.393Z,99427.19
2022-12-01T19:36:25.492Z,99424.31
2022-12-01T19:38:53.852Z,99420.69
2022-12-01T19:41:21.704Z,99431.09
2022-12-01T19:43:49.418Z,99431.75
2022-12-01T19:46:19.524Z,99424.19
2022-12-01T19:48:48.212Z,99426.22
2022-12-01T19:51:20.646Z,99428.81
2022-12-01T19:53:48.756Z,99433.53
2022-12-01T19:56:15.857Z,99434.56
2022-12-01T19:58:44.871Z,99433.91
2022-12-01T20:01:17.709Z,99431.59
2022-12-01T20:03:48.776Z,99431.34
2022-12-01T20:06:22.587Z,99425.69
2022-12-01T20:08:51.109Z,99430.13
2022-12-01T20:11:18.950Z,99430.78
2022-12-01T20:13:48.154Z,99424.09
2022-12-01T20:16:20.653Z,99425.44
2022-12-01T20:18:50.818Z,99416.19
2022-12-01T20:21:23.797Z,99413.34
2022-12-01T20:23:58.777Z,99409.13
2022-12-01T20:26:38.844Z,99409.47
2022-12-01T20:29:12.822Z,99414.16
2022-12-01T20:31:40.604Z,99415.81
2022-12-01T20:34:12.998Z,99419.16
2022-12-01T20:36:40.944Z,99416.44
2022-12-01T20:39:10.011Z,99422.09
2022-12-01T20:41:38.387Z,99416.41
2022-12-01T20:44:07.953Z,99412.09
2022-12-01T20:46:37.024Z,99416.41
2022-12-01T20:49:05.449Z,99417.88
2022-12-01T20:51:35.268Z,99410.63
2022-12-01T20:54:27.179Z,99415.81
2022-12-01T20:56:52.863Z,99411.72
2022-12-01T20:59:24.126Z,99421.34
2022-12-01T21:01:51.160Z,99425.16
2022-12-01T21:04:18.648Z,99421.94
2022-12-01T21:06:46.129Z,99421.03
2022-12-01T21:09:15.144Z,99422.16
2022-12-01T21:12:09.435Z,99428.84
2022-12-01T21:14:52.876Z,99424.84
2022-12-01T21:17:34.356Z,99417.31
2022-12-01T21:20:22.198Z,99433.66
2022-12-01T21:22:51.351Z,99424.00
2022-12-01T21:25:22.502Z,99422.66
2022-12-01T21:27:50.316Z,99424.06
2022-12-01T21:30:22.115Z,99428.06
2022-12-01T21:32:50.018Z,99430.09
2022-12-01T21:35:25.109Z,99427.88
2022-12-01T21:38:07.413Z,99416.72
2022-12-01T21:40:35.142Z,99419.84
2022-12-01T21:43:22.914Z,99416.50
2022-12-01T21:46:07.154Z,99422.50
2022-12-01T21:48:37.002Z,99422.75
2022-12-01T21:51:19.046Z,99423.56
2022-12-01T21:53:48.746Z,99425.44
2022-12-01T21:56:22.263Z,99416.47
2022-12-01T21:58:50.049Z,99422.69
2022-12-01T22:01:27.131Z,99418.06
2022-12-01T22:04:02.263Z,99419.09
2022-12-01T22:06:38.121Z,99412.91
2022-12-01T22:09:24.499Z,99411.19
2022-12-01T22:11:57.996Z,99412.47
2022-12-01T22:14:30.022Z,99406.59
2022-12-01T22:17:01.415Z,99410.06
2022-12-01T22:19:34.006Z,99406.31
2022-12-01T22:22:14.437Z,99408.06
2022-12-01T22:24:43.842Z,99408.94
2022-12-01T22:27:20.111Z,99406.56
2022-12-01T22:29:54.096Z,99411.88
2022-12-01T22:32:34.754Z,99409.69
2022-12-01T22:38:48.418Z,99408.19
2022-12-01T22:41:27.499Z,99408.13
2022-12-01T22:44:15.375Z,99401.19
2022-12-01T22:47:06.997Z,99399.41
2022-12-01T22:49:49.726Z,99403.28
2022-12-01T22:52:53.328Z,99397.34
2022-12-01T22:55:25.424Z,99404.41
2022-12-01T23:01:15.677Z,99400.94
2022-12-01T23:03:44.821Z,99395.69
2022-12-01T23:06:51.965Z,99388.34
2022-12-01T23:09:20.229Z,99400.69
2022-12-01T23:12:00.300Z,99387.63
2022-12-01T23:14:29.148Z,99391.53
2022-12-01T23:17:13.260Z,99376.88
2022-12-01T23:19:43.811Z,99387.22
2022-12-01T23:22:12.326Z,99383.28
2022-12-01T23:24:40.271Z,99377.13
2022-12-01T23:27:08.159Z,99373.78
2022-12-01T23:30:06.908Z,99377.38
2022-12-01T23:32:43.697Z,99379.72
2022-12-01T23:35:16.012Z,99382.38
2022-12-01T23:37:47.538Z,99368.03
2022-12-01T23:40:25.775Z,99369.50
2022-12-01T23:42:53.930Z,99380.31
2022-12-01T23:45:24.805Z,99380.31
2022-12-01T23:47:54.842Z,99380.38
2022-12-01T23:50:24.046Z,99375.66
2022-12-01T23:52:52.191Z,99379.44
2022-12-01T23:55:31.332Z,99371.75
2022-12-01T23:57:59.552Z,99366.28
